Time;durP1;ratioP1;P1;durP2;ratioP2;P2;SDS_P1;SDS_P2;PMS_P1;PMS_P2;Temp;Humidity;BMP_temperature;BMP_pressure;BME280_temperature;BME280_humidity;BME280_pressure;Samples;Min_cycle;Max_cycle;Signal;HPM_P1;HPM_P2
2023/05/21 00:00:31;;;;;;;8.43;5.40;;;;;;;21.17;49.06;99675.00;4494870;31;33837;-66
2023/05/21 00:02:58;;;;;;;9.48;5.05;;;;;;;21.45;48.42;99671.72;4499541;31;33496;-66
2023/05/21 00:05:26;;;;;;;8.02;4.97;;;;;;;21.60;48.03;99671.69;4500892;31;33675;-66
2023/05/21 00:07:54;;;;;;;11.10;4.40;;;;;;;21.35;48.63;99669.25;4498183;31;35293;-67
2023/05/21 00:10:21;;;;;;;10.20;5.05;;;;;;;21.22;48.94;99671.75;4498429;31;35011;-66
2023/05/21 00:12:49;;;;;;;7.82;5.28;;;;;;;21.36;48.39;99665.50;4498889;31;33755;-67
2023/05/21 00:15:17;;;;;;;7.57;4.62;;;;;;;21.46;48.49;99670.66;4496401;31;34347;-66
2023/05/21 00:17:44;;;;;;;8.70;4.82;;;;;;;21.38;48.53;99670.78;4494654;31;34089;-67
2023/05/21 00:20:12;;;;;;;5.22;3.47;;;;;;;21.28;48.81;99670.12;4494689;31;33009;-67
2023/05/21 00:22:41;;;;;;;7.25;4.55;;;;;;;21.24;49.05;99672.38;4496061;31;33297;-66
2023/05/21 00:25:10;;;;;;;6.97;4.25;;;;;;;21.21;49.15;99666.47;4493540;31;33806;-64
2023/05/21 00:27:37;;;;;;;6.97;4.12;;;;;;;21.09;49.52;99676.94;4498042;31;35046;-66
2023/05/21 00:30:05;;;;;;;7.90;5.50;;;;;;;21.20;49.22;99681.97;4496996;31;35114;-65
2023/05/21 00:32:33;;;;;;;6.72;4.07;;;;;;;21.12;49.40;99677.47;4496627;31;33374;-65
2023/05/21 00:35:01;;;;;;;7.45;4.28;;;;;;;21.15;49.42;99682.53;4496755;31;35024;-65
2023/05/21 00:37:33;;;;;;;10.25;3.53;;;;;;;21.17;49.42;99680.44;4493574;31;33644;-64
2023/05/21 00:40:01;;;;;;;6.60;4.15;;;;;;;21.38;48.93;99682.50;4496959;31;34928;-66
2023/05/21 00:42:29;;;;;;;10.02;6.40;;;;;;;21.55;48.48;99688.63;4493804;31;33478;-67
2023/05/21 00:44:57;;;;;;;9.50;5.40;;;;;;;21.65;48.34;99684.78;4500812;31;33655;-65
2023/05/21 00:47:28;;;;;;;7.37;4.62;;;;;;;21.58;48.30;99682.78;4490178;31;35432;-67
2023/05/21 00:49:56;;;;;;;9.35;5.12;;;;;;;21.58;48.40;99684.69;4495994;31;33955;-66
2023/05/21 00:52:25;;;;;;;10.43;4.93;;;;;;;21.68;48.22;99676.22;4497622;31;33173;-65
2023/05/21 00:54:54;;;;;;;9.35;4.95;;;;;;;21.77;48.05;99675.94;4495992;31;35067;-66
2023/05/21 00:57:25;;;;;;;7.47;3.50;;;;;;;22.02;47.50;99671.03;4493279;31;35206;-66
2023/05/21 00:59:53;;;;;;;8.93;5.53;;;;;;;21.84;47.62;99665.13;4496956;31;34806;-67
2023/05/21 01:02:22;;;;;;;9.27;5.10;;;;;;;21.81;47.83;99673.69;4487118;31;33259;-66
2023/05/21 01:04:53;;;;;;;7.78;4.72;;;;;;;21.85;47.60;99667.66;4496220;31;32842;-66
2023/05/21 01:07:22;;;;;;;10.55;4.43;;;;;;;21.85;47.66;99669.53;4484911;31;33844;-67
2023/05/21 01:09:49;;;;;;;10.73;3.55;;;;;;;21.99;47.31;99663.22;4497956;31;34181;-66
2023/05/21 01:12:17;;;;;;;9.75;4.47;;;;;;;21.93;47.39;99669.44;4496724;31;33212;-66
2023/05/21 01:14:45;;;;;;;8.60;4.78;;;;;;;21.59;48.19;99668.13;4489955;31;34914;-66
2023/05/21 01:17:14;;;;;;;10.38;4.97;;;;;;;21.41;48.57;99664.94;4494119;31;33634;-65
2023/05/21 01:19:43;;;;;;;9.07;4.20;;;;;;;21.42;48.60;99657.63;4490054;31;34936;-66
2023/05/21 01:22:13;;;;;;;9.55;4.05;;;;;;;21.72;47.94;99653.84;4485520;31;33420;-65
2023/05/21 01:24:47;;;;;;;9.18;5.20;;;;;;;21.71;48.07;99654.06;4485954;31;33673;-66
2023/05/21 01:27:15;;;;;;;9.65;5.12;;;;;;;21.96;47.74;99651.84;4486111;31;33362;-66
2023/05/21 01:29:42;;;;;;;8.57;5.72;;;;;;;22.01;47.49;99642.06;4495122;31;34801;-65
2023/05/21 01:32:34;;;;;;;8.77;3.95;;;;;;;21.89;48.05;99646.31;4493518;31;33062;-66
2023/05/21 01:35:35;;;;;;;8.40;5.97;;;;;;;21.94;47.63;99646.59;4490062;31;33777;-65
2023/05/21 01:38:03;;;;;;;8.98;4.55;;;;;;;21.93;47.71;99654.97;4460722;31;33923;-66
2023/05/21 01:40:37;;;;;;;7.10;3.70;;;;;;;22.01;47.45;99647.50;4496774;31;33593;-67
2023/05/21 01:43:06;;;;;;;10.85;4.87;;;;;;;22.05;47.20;99646.12;4488336;31;34169;-64
2023/05/21 01:45:35;;;;;;;8.88;4.87;;;;;;;21.81;47.72;99651.88;4489110;31;33763;-65
2023/05/21 01:48:04;;;;;;;5.90;3.20;;;;;;;21.73;47.83;99657.41;4488058;31;33977;-65
2023/05/21 01:50:33;;;;;;;8.55;4.60;;;;;;;21.54;48.13;99656.97;4488215;31;32518;-66
2023/05/21 01:53:02;;;;;;;8.95;5.32;;;;;;;21.57;48.10;99656.59;4487885;31;34235;-65
2023/05/21 01:55:30;;;;;;;8.77;4.40;;;;;;;21.39;48.64;99650.66;4500041;31;34816;-65
2023/05/21 01:57:58;;;;;;;6.22;4.53;;;;;;;21.35;48.44;99647.47;4497770;31;35025;-65
2023/05/21 02:00:31;;;;;;;9.85;5.25;;;;;;;21.26;48.62;99650.44;4494868;31;33487;-66
2023/05/21 02:02:59;;;;;;;5.68;3.90;;;;;;;21.00;49.22;99661.75;4490643;31;31697;-66
2023/05/21 02:05:26;;;;;;;8.98;3.40;;;;;;;20.62;50.07;99661.72;4496329;31;33624;-65
2023/05/21 02:07:55;;;;;;;5.57;3.25;;;;;;;20.63;50.17;99656.09;4493477;31;32787;-66
2023/05/21 02:10:23;;;;;;;7.43;3.95;;;;;;;20.30;51.13;99651.91;4496902;31;32931;-64
2023/05/21 02:12:51;;;;;;;6.43;3.55;;;;;;;20.84;49.72;99657.31;4497900;31;33573;-64
2023/05/21 02:15:19;;;;;;;5.85;3.87;;;;;;;20.58;50.29;99665.84;4493705;31;33699;-68
2023/05/21 02:17:50;;;;;;;8.95;3.92;;;;;;;20.54;50.01;99662.62;4496867;31;32425;-68
2023/05/21 02:20:18;;;;;;;5.90;3.33;;;;;;;20.62;49.95;99665.28;4494898;31;33508;-67
2023/05/21 02:22:47;;;;;;;6.47;4.30;;;;;;;20.30;50.92;99654.62;4495962;31;33639;-66
2023/05/21 02:25:17;;;;;;;15.30;3.92;;;;;;;20.41;50.58;99656.91;4491080;31;34918;-66
2023/05/21 02:27:45;;;;;;;6.28;3.62;;;;;;;19.90;51.84;99648.38;4497246;31;35032;-65
2023/05/21 02:30:14;;;;;;;6.87;4.30;;;;;;;20.08;51.41;99656.25;4493744;31;34769;-65
2023/05/21 02:32:42;;;;;;;7.53;4.25;;;;;;;20.48;50.38;99647.00;4496045;31;33118;-65
2023/05/21 02:35:11;;;;;;;6.07;4.07;;;;;;;20.69;49.90;99651.81;4495968;31;34529;-66
2023/05/21 02:37:39;;;;;;;8.43;4.15;;;;;;;20.94;49.07;99649.72;4497807;31;33143;-66
2023/05/21 02:40:08;;;;;;;12.35;4.75;;;;;;;20.97;49.17;99652.09;4494032;31;33822;-66
2023/05/21 02:42:38;;;;;;;6.03;3.85;;;;;;;21.05;49.23;99652.00;4496751;31;33522;-67
2023/05/21 02:45:08;;;;;;;6.45;3.80;;;;;;;21.28;48.63;99659.25;4496838;31;33691;-65
2023/05/21 02:47:37;;;;;;;10.48;3.50;;;;;;;21.17;48.57;99652.41;4496693;31;34593;-66
2023/05/21 02:50:07;;;;;;;7.65;3.95;;;;;;;21.23;48.82;99667.16;4496007;31;33572;-65
2023/05/21 02:52:36;;;;;;;9.15;5.15;;;;;;;21.36;48.25;99661.94;4496970;31;33224;-65
2023/05/21 02:55:03;;;;;;;7.25;4.20;;;;;;;21.36;48.38;99653.78;4492496;31;32476;-64
2023/05/21 02:57:31;;;;;;;17.40;4.78;;;;;;;21.35;48.21;99642.03;4490055;31;33734;-64
2023/05/21 02:59:59;;;;;;;7.90;5.18;;;;;;;21.24;48.66;99642.44;4498375;31;34165;-65
2023/05/21 03:02:26;;;;;;;7.57;4.90;;;;;;;21.27;48.53;99661.12;4486569;31;34713;-64
2023/05/21 03:04:54;;;;;;;8.05;4.32;;;;;;;21.31;48.55;99656.16;4490274;31;33683;-65
2023/05/21 03:07:23;;;;;;;5.00;3.20;;;;;;;21.38;48.28;99657.16;4492306;31;33747;-67
2023/05/21 03:09:50;;;;;;;10.55;4.45;;;;;;;21.39;48.19;99650.66;4495347;31;33546;-63
2023/05/21 03:12:18;;;;;;;8.60;4.87;;;;;;;21.15;48.67;99658.03;4494219;31;33346;-64
2023/05/21 03:14:50;;;;;;;9.25;4.97;;;;;;;21.26;48.72;99654.00;4496277;31;33149;-64
2023/05/21 03:17:19;;;;;;;9.88;4.30;;;;;;;21.14;48.89;99648.16;4493364;31;34305;-67
2023/05/21 03:19:47;;;;;;;6.85;3.72;;;;;;;21.09;49.24;99647.88;4494270;31;35214;-64
2023/05/21 03:22:15;;;;;;;6.55;3.58;;;;;;;20.97;49.74;99652.09;4489935;31;34519;-65
2023/05/21 03:24:44;;;;;;;6.07;4.12;;;;;;;20.93;49.14;99645.31;4494442;31;34011;-64
2023/05/21 03:27:12;;;;;;;7.35;3.87;;;;;;;21.01;48.92;99650.69;4494202;31;33947;-65
2023/05/21 03:29:39;;;;;;;7.87;4.87;;;;;;;21.06;48.91;99644.66;4497937;31;35001;-64
2023/05/21 03:32:07;;;;;;;6.82;4.70;;;;;;;21.16;48.99;99645.28;4500360;31;31549;-64
2023/05/21 03:34:36;;;;;;;7.05;4.43;;;;;;;21.13;49.19;99643.75;4488828;31;33924;-64
2023/05/21 03:37:03;;;;;;;5.70;3.80;;;;;;;21.29;48.33;99642.75;4495899;31;34108;-64
2023/05/21 03:39:31;;;;;;;6.28;3.97;;;;;;;21.28;48.33;99646.47;4492669;31;34592;-64
2023/05/21 03:41:59;;;;;;;6.57;3.65;;;;;;;21.18;48.50;99645.91;4500154;31;32030;-64
2023/05/21 03:44:28;;;;;;;5.82;4.15;;;;;;;21.15;48.68;99649.87;4500711;31;33873;-63
2023/05/21 03:46:56;;;;;;;5.95;3.72;;;;;;;21.24;48.13;99647.91;4498688;31;35114;-64
2023/05/21 03:49:25;;;;;;;10.63;4.40;;;;;;;20.79;48.96;99649.69;4499062;31;35263;-64
2023/05/21 03:51:53;;;;;;;7.47;4.07;;;;;;;20.91;49.22;99644.66;4501057;31;33535;-66
2023/05/21 03:54:20;;;;;;;7.90;4.37;;;;;;;20.96;49.25;99653.09;4498259;31;34876;-65
2023/05/21 03:56:49;;;;;;;13.48;5.50;;;;;;;21.03;49.54;99654.06;4498936;31;35249;-65
2023/05/21 03:59:17;;;;;;;10.10;3.78;;;;;;;21.14;48.91;99650.87;4499391;31;33487;-64
2023/05/21 04:01:45;;;;;;;6.45;3.70;;;;;;;21.15;48.50;99658.03;4499626;31;34293;-64
2023/05/21 04:04:13;;;;;;;5.82;3.30;;;;;;;20.92;48.89;99657.22;4498538;31;35049;-64
2023/05/21 04:06:41;;;;;;;6.22;3.67;;;;;;;20.64;49.24;99656.94;4496424;31;34963;-65
2023/05/21 04:09:09;;;;;;;5.30;3.33;;;;;;;20.60;49.02;99658.34;4496174;31;33466;-64
2023/05/21 04:11:37;;;;;;;10.27;5.15;;;;;;;20.78;48.64;99653.44;4499046;31;33414;-64
2023/05/21 04:14:05;;;;;;;7.85;4.10;;;;;;;20.38;49.18;99649.94;4497448;31;33940;-64
2023/05/21 04:16:34;;;;;;;6.00;3.53;;;;;;;20.11;50.20;99655.91;4497366;31;33865;-66
2023/05/21 04:19:03;;;;;;;5.90;3.28;;;;;;;19.49;51.83;99656.66;4499920;31;33611;-64
2023/05/21 04:21:31;;;;;;;6.62;3.85;;;;;;;19.85;51.29;99658.94;4499626;31;34204;-62
2023/05/21 04:23:59;;;;;;;4.65;2.72;;;;;;;19.77;51.78;99663.38;4498363;31;33719;-63
2023/05/21 04:26:28;;;;;;;6.50;4.28;;;;;;;19.51;52.35;99670.88;4498027;31;34914;-64
2023/05/21 04:28:58;;;;;;;6.07;3.47;;;;;;;19.48;52.57;99672.06;4493158;31;34517;-62
2023/05/21 04:31:25;;;;;;;6.95;3.87;;;;;;;19.56;52.45;99663.06;4495343;31;33256;-63
2023/05/21 04:33:53;;;;;;;6.90;3.97;;;;;;;19.78;51.88;99669.66;4499579;31;33460;-63
2023/05/21 04:36:21;;;;;;;5.28;3.03;;;;;;;19.82;51.66;99662.00;4498820;31;34002;-63
2023/05/21 04:38:48;;;;;;;4.70;3.40;;;;;;;20.54;49.50;99665.34;4496463;31;32371;-65
2023/05/21 04:41:17;;;;;;;4.65;2.83;;;;;;;20.56;50.00;99665.16;4499003;31;34218;-63
2023/05/21 04:43:45;;;;;;;7.97;3.78;;;;;;;20.38;50.13;99658.09;4498041;31;33995;-64
2023/05/21 04:46:13;;;;;;;6.70;3.45;;;;;;;20.88;49.36;99662.19;4496102;31;32589;-64
2023/05/21 04:48:41;;;;;;;6.12;3.45;;;;;;;20.66;49.13;99665.75;4499346;31;32525;-64
2023/05/21 04:51:09;;;;;;;6.55;3.15;;;;;;;20.46;49.68;99651.78;4499224;31;32072;-64
2023/05/21 04:53:37;;;;;;;8.10;3.78;;;;;;;20.66;49.16;99663.88;4499334;31;34732;-64
2023/05/21 04:56:06;;;;;;;5.20;2.90;;;;;;;20.79;48.91;99659.72;4499049;31;34146;-63
2023/05/21 04:58:33;;;;;;;8.60;4.32;;;;;;;20.49;49.43;99659.56;4496438;31;32697;-64
2023/05/21 05:01:02;;;;;;;8.50;3.33;;;;;;;20.41;50.22;99660.47;4496344;31;33459;-65
2023/05/21 05:03:30;;;;;;;6.68;2.97;;;;;;;20.41;50.04;99665.06;4494427;31;32677;-64
2023/05/21 05:05:59;;;;;;;6.20;3.25;;;;;;;20.37;49.96;99661.84;4497532;31;37082;-64
2023/05/21 05:08:26;;;;;;;4.45;2.95;;;;;;;20.72;49.34;99669.62;4490131;31;33626;-64
2023/05/21 05:10:54;;;;;;;6.25;4.18;;;;;;;20.79;48.95;99657.84;4495484;31;33441;-64
2023/05/21 05:13:22;;;;;;;5.75;3.95;;;;;;;21.39;48.04;99661.56;4496252;31;33675;-63
2023/05/21 05:15:51;;;;;;;4.97;2.95;;;;;;;21.41;47.08;99667.66;4499783;31;34896;-63
2023/05/21 05:18:21;;;;;;;4.87;3.05;;;;;;;21.27;47.94;99666.56;4495923;31;33719;-63
2023/05/21 05:20:48;;;;;;;8.43;3.53;;;;;;;21.25;47.62;99660.50;4498126;31;32966;-64
2023/05/21 05:23:16;;;;;;;4.57;2.87;;;;;;;21.06;48.37;99656.44;4497748;31;35485;-63
2023/05/21 05:25:44;;;;;;;4.50;2.67;;;;;;;21.30;47.82;99652.59;4493807;31;34545;-62
2023/05/21 05:28:11;;;;;;;7.05;2.92;;;;;;;21.12;47.70;99657.53;4497653;31;33973;-64
2023/05/21 05:30:39;;;;;;;5.68;3.72;;;;;;;21.23;47.79;99667.16;4495736;31;34655;-63
2023/05/21 05:33:08;;;;;;;6.47;4.12;;;;;;;21.15;48.71;99652.59;4493911;31;35019;-63
2023/05/21 05:35:35;;;;;;;5.12;3.17;;;;;;;21.45;48.31;99654.53;4498288;31;34025;-63
2023/05/21 05:38:04;;;;;;;11.77;3.83;;;;;;;21.59;46.87;99659.97;4498962;31;33593;-63
2023/05/21 05:40:32;;;;;;;6.80;3.05;;;;;;;21.25;47.64;99660.50;4498281;31;34108;-65
2023/05/21 05:42:59;;;;;;;5.05;2.70;;;;;;;21.63;47.03;99663.16;4498697;31;33735;-65
2023/05/21 05:45:27;;;;;;;8.40;4.62;;;;;;;21.58;47.32;99666.44;4497742;31;34241;-64
2023/05/21 05:47:55;;;;;;;10.93;4.60;;;;;;;21.74;47.48;99654.53;4495768;31;32505;-64
2023/05/21 05:50:23;;;;;;;6.97;3.50;;;;;;;21.81;47.67;99658.16;4496738;31;33122;-63
2023/05/21 05:52:51;;;;;;;7.03;3.65;;;;;;;21.97;46.40;99659.00;4493494;31;32337;-63
2023/05/21 05:55:20;;;;;;;7.72;4.45;;;;;;;21.91;46.23;99655.16;4486223;31;35177;-63
2023/05/21 05:57:48;;;;;;;6.22;3.33;;;;;;;21.84;46.75;99654.22;4492202;31;34515;-63
2023/05/21 06:00:16;;;;;;;7.55;4.30;;;;;;;21.96;46.78;99654.56;4497379;31;34592;-63
2023/05/21 06:02:44;;;;;;;5.03;3.62;;;;;;;22.28;45.72;99650.59;4495412;31;33476;-63
2023/05/21 06:05:12;;;;;;;4.50;2.40;;;;;;;22.31;45.41;99645.59;4498472;31;33850;-63
2023/05/21 06:07:40;;;;;;;6.15;5.00;;;;;;;22.17;44.84;99651.94;4495943;31;34565;-64
2023/05/21 06:10:08;;;;;;;5.85;3.50;;;;;;;22.19;44.43;99647.16;4495154;31;31918;-64
2023/05/21 06:12:35;;;;;;;4.60;2.67;;;;;;;22.06;44.83;99645.06;4492763;31;35602;-66
2023/05/21 06:15:04;;;;;;;7.28;3.72;;;;;;;22.05;45.27;99642.53;4497465;31;35169;-67
2023/05/21 06:17:33;;;;;;;4.53;3.05;;;;;;;22.17;45.50;99640.19;4495399;31;33981;-65
2023/05/21 06:20:01;;;;;;;18.87;4.03;;;;;;;22.21;44.64;99644.22;4491620;31;34498;-63
2023/05/21 06:22:30;;;;;;;7.57;3.83;;;;;;;22.51;44.66;99643.09;4495313;31;32808;-63
2023/05/21 06:24:57;;;;;;;5.60;3.65;;;;;;;22.32;43.79;99647.28;4491610;31;33681;-63
2023/05/21 06:27:25;;;;;;;8.02;4.20;;;;;;;22.00;45.07;99645.00;4497086;31;33851;-64
2023/05/21 06:29:53;;;;;;;6.72;3.87;;;;;;;22.37;44.53;99649.41;4496672;31;34072;-65
2023/05/21 06:32:21;;;;;;;7.40;3.78;;;;;;;22.42;43.99;99646.12;4494513;31;33681;-64
2023/05/21 06:34:49;;;;;;;4.75;2.65;;;;;;;22.49;43.60;99645.16;4496840;31;32595;-63
2023/05/21 06:37:19;;;;;;;6.07;3.45;;;;;;;22.38;44.87;99640.22;4498168;31;34589;-63
2023/05/21 06:39:47;;;;;;;7.15;3.87;;;;;;;23.00;43.91;99645.03;4498337;31;33069;-65
2023/05/21 06:42:15;;;;;;;7.47;3.97;;;;;;;23.24;43.64;99634.69;4497478;31;33653;-66
2023/05/21 06:44:43;;;;;;;5.37;3.42;;;;;;;23.55;42.90;99642.47;4498272;31;33718;-63
2023/05/21 06:47:11;;;;;;;6.43;4.03;;;;;;;23.49;42.34;99635.06;4497649;31;33654;-63
2023/05/21 06:49:39;;;;;;;7.28;4.57;;;;;;;23.45;42.85;99631.91;4496454;31;31861;-66
2023/05/21 06:52:07;;;;;;;7.57;3.70;;;;;;;23.14;43.00;99629.56;4496386;31;33484;-63
2023/05/21 06:54:35;;;;;;;6.70;3.25;;;;;;;22.79;43.70;99629.50;4496421;31;33816;-63
2023/05/21 06:57:02;;;;;;;7.93;4.12;;;;;;;23.32;43.72;99634.53;4497471;31;34980;-64
2023/05/21 06:59:30;;;;;;;7.35;4.43;;;;;;;23.01;43.19;99634.94;4498669;31;32916;-66
2023/05/21 07:01:58;;;;;;;6.68;3.40;;;;;;;23.35;42.53;99630.56;4494667;31;34733;-64
2023/05/21 07:04:26;;;;;;;9.35;3.87;;;;;;;22.81;42.89;99623.84;4489722;31;35305;-66
2023/05/21 07:06:54;;;;;;;7.72;4.55;;;;;;;23.34;42.05;99621.53;4491004;31;33687;-63
2023/05/21 07:09:22;;;;;;;6.65;4.18;;;;;;;23.41;41.81;99618.84;4495465;31;34649;-62
2023/05/21 07:11:52;;;;;;;7.25;3.75;;;;;;;23.27;42.87;99628.81;4498880;31;33621;-63
2023/05/21 07:14:20;;;;;;;7.80;4.47;;;;;;;23.31;41.72;99624.69;4499198;31;34196;-63
2023/05/21 07:16:50;;;;;;;7.12;3.47;;;;;;;22.90;43.28;99619.09;4498768;31;34497;-63
2023/05/21 07:19:17;;;;;;;8.88;3.60;;;;;;;22.42;44.29;99618.88;4500106;31;31949;-66
2023/05/21 07:21:45;;;;;;;7.62;3.95;;;;;;;23.19;42.86;99621.66;4497081;31;32503;-65
2023/05/21 07:24:12;;;;;;;7.25;3.10;;;;;;;23.12;42.21;99628.94;4496412;31;33662;-65
2023/05/21 07:26:41;;;;;;;7.18;3.62;;;;;;;23.12;42.45;99625.38;4496789;31;34624;-63
2023/05/21 07:29:10;;;;;;;8.18;3.35;;;;;;;23.86;42.79;99631.09;4499651;31;33360;-64
2023/05/21 07:31:37;;;;;;;7.75;5.20;;;;;;;23.75;41.14;99625.34;4499161;31;35727;-63
2023/05/21 07:34:05;;;;;;;6.35;3.35;;;;;;;23.45;42.67;99618.25;4497807;31;33667;-63
2023/05/21 07:36:33;;;;;;;6.18;3.50;;;;;;;23.87;41.23;99613.63;4493352;31;34642;-63
2023/05/21 07:39:01;;;;;;;6.28;3.40;;;;;;;23.92;40.73;99623.97;4499641;31;33305;-66
2023/05/21 07:41:29;;;;;;;7.55;4.07;;;;;;;23.68;41.65;99617.09;4500699;31;33580;-63
2023/05/21 07:43:57;;;;;;;5.50;3.65;;;;;;;23.83;40.90;99620.56;4499923;31;33696;-63
2023/05/21 07:46:25;;;;;;;10.88;4.85;;;;;;;24.01;40.88;99619.16;4494783;31;32783;-66
2023/05/21 07:48:53;;;;;;;5.95;3.20;;;;;;;24.27;41.23;99612.91;4497132;31;33540;-64
2023/05/21 07:51:20;;;;;;;5.45;3.22;;;;;;;24.19;41.27;99611.22;4497652;31;32722;-63
2023/05/21 07:53:49;;;;;;;8.55;4.10;;;;;;;24.28;40.54;99611.87;4499735;31;34075;-63
2023/05/21 07:56:17;;;;;;;6.97;3.90;;;;;;;23.71;42.41;99609.38;4498346;31;32570;-68
2023/05/21 07:58:44;;;;;;;7.80;3.78;;;;;;;24.06;41.27;99612.03;4496499;31;34161;-64
2023/05/21 08:01:13;;;;;;;6.45;3.45;;;;;;;23.85;42.09;99595.75;4492744;31;33403;-64
2023/05/21 08:03:41;;;;;;;6.90;3.75;;;;;;;24.23;41.49;99612.50;4497659;31;34759;-63
2023/05/21 08:06:09;;;;;;;6.53;3.78;;;;;;;24.54;41.18;99611.13;4494189;31;33889;-63
2023/05/21 08:08:37;;;;;;;7.47;3.47;;;;;;;24.57;40.44;99618.91;4487211;31;33491;-64
2023/05/21 08:11:05;;;;;;;7.07;3.92;;;;;;;24.74;40.30;99619.34;4496620;31;33975;-64
2023/05/21 08:13:33;;;;;;;10.07;3.78;;;;;;;24.51;40.20;99609.63;4495241;31;32681;-65
2023/05/21 08:16:00;;;;;;;7.35;3.95;;;;;;;23.70;41.95;99604.13;4498264;31;33875;-67
2023/05/21 08:18:28;;;;;;;9.63;4.40;;;;;;;24.54;40.57;99609.22;4497591;31;35805;-63
2023/05/21 08:20:56;;;;;;;6.22;3.22;;;;;;;24.84;39.74;99612.37;4500149;31;33639;-64
2023/05/21 08:23:25;;;;;;;7.72;3.30;;;;;;;24.81;38.69;99606.50;4493205;31;33801;-64
2023/05/21 08:25:53;;;;;;;7.15;3.87;;;;;;;24.91;38.79;99609.69;4487320;31;34955;-64
2023/05/21 08:28:22;;;;;;;9.07;5.15;;;;;;;24.29;41.30;99617.12;4497040;31;33259;-64
2023/05/21 08:30:50;;;;;;;7.47;4.90;;;;;;;24.75;39.33;99610.06;4496286;31;33991;-64
2023/05/21 08:33:21;;;;;;;10.45;4.25;;;;;;;24.83;39.79;99610.72;4496208;31;33189;-63
2023/05/21 08:35:48;;;;;;;7.68;3.62;;;;;;;24.85;39.57;99611.34;4495697;31;33315;-65
2023/05/21 08:38:16;;;;;;;7.95;4.45;;;;;;;24.87;40.27;99609.22;4498708;31;33393;-64
2023/05/21 08:40:50;;;;;;;6.55;3.37;;;;;;;24.90;39.60;99615.34;4496709;31;34508;-65
2023/05/21 08:43:17;;;;;;;8.38;3.20;;;;;;;24.78;39.63;99610.53;4495242;31;34967;-64
2023/05/21 08:45:53;;;;;;;7.62;3.95;;;;;;;24.70;40.10;99618.91;4494593;31;35602;-64
2023/05/21 08:48:22;;;;;;;8.60;4.28;;;;;;;24.81;39.45;99612.81;4487746;31;34527;-65
2023/05/21 08:50:51;;;;;;;6.80;3.78;;;;;;;25.02;39.53;99611.75;4497199;31;33385;-65
2023/05/21 08:53:20;;;;;;;5.40;3.83;;;;;;;25.10;38.81;99614.28;4496060;31;35197;-64
2023/05/21 08:55:56;;;;;;;5.80;3.85;;;;;;;24.79;40.37;99611.34;4496564;31;33630;-65
2023/05/21 08:58:24;;;;;;;7.75;4.07;;;;;;;24.91;39.56;99612.41;4496649;31;33701;-65
2023/05/21 09:00:53;;;;;;;7.28;3.90;;;;;;;24.92;39.53;99608.62;4496318;31;34466;-65
2023/05/21 09:03:23;;;;;;;5.22;3.30;;;;;;;24.91;38.71;99611.53;4494244;31;33857;-64
2023/05/21 09:05:51;;;;;;;5.82;3.15;;;;;;;24.63;39.89;99613.44;4498038;31;33634;-64
2023/05/21 09:08:30;;;;;;;6.28;3.97;;;;;;;24.92;39.78;99611.34;4488565;31;33096;-65
2023/05/21 09:11:01;;;;;;;7.07;5.07;;;;;;;24.98;40.14;99606.94;4496237;31;34217;-65
2023/05/21 09:13:33;;;;;;;6.72;3.97;;;;;;;24.94;39.06;99608.38;4496250;31;34048;-65
2023/05/21 09:16:06;;;;;;;6.20;3.65;;;;;;;24.95;39.32;99605.44;4490626;31;33877;-63
2023/05/21 09:18:33;;;;;;;7.50;4.70;;;;;;;25.10;39.28;99606.06;4489829;31;33399;-64
2023/05/21 09:21:23;;;;;;;6.80;3.58;;;;;;;25.49;39.34;99596.13;4494382;31;34372;-65
2023/05/21 09:23:56;;;;;;;9.63;4.10;;;;;;;25.59;37.58;99612.13;4496067;31;35057;-66
2023/05/21 09:26:24;;;;;;;6.93;3.75;;;;;;;25.87;37.31;99595.34;4494836;31;33839;-66
2023/05/21 09:28:57;;;;;;;5.85;3.08;;;;;;;25.83;38.11;99598.75;4494219;31;34423;-64
2023/05/21 09:31:25;;;;;;;6.47;4.00;;;;;;;26.21;37.10;99596.87;4495554;31;33388;-64
2023/05/21 09:33:57;;;;;;;7.28;3.95;;;;;;;26.18;37.13;99596.47;4484696;31;34572;-64
2023/05/21 09:36:25;;;;;;;6.07;2.92;;;;;;;26.20;35.34;99597.94;4494894;31;31753;-64
2023/05/21 09:38:53;;;;;;;4.90;2.83;;;;;;;26.13;36.33;99610.88;4498478;31;34704;-65
2023/05/21 09:41:30;;;;;;;10.55;4.32;;;;;;;26.41;36.15;99607.72;4494485;31;33479;-64
2023/05/21 09:44:00;;;;;;;7.25;4.70;;;;;;;26.01;37.80;99607.97;4499225;31;34198;-63
2023/05/21 09:46:39;;;;;;;5.97;3.87;;;;;;;26.31;37.01;99601.03;4498956;31;33734;-65
2023/05/21 09:49:35;;;;;;;8.32;4.70;;;;;;;26.05;36.72;99599.28;4495595;31;34595;-64
2023/05/21 09:52:04;;;;;;;8.43;4.72;;;;;;;25.74;37.96;99603.59;4487961;31;33599;-65
2023/05/21 09:54:33;;;;;;;6.95;3.90;;;;;;;26.29;36.90;99600.41;4491635;31;34293;-63
2023/05/21 09:57:03;;;;;;;6.40;3.92;;;;;;;26.33;36.05;99594.28;4494977;31;34811;-66
2023/05/21 09:59:38;;;;;;;6.87;3.92;;;;;;;26.29;35.66;99605.91;4495597;31;34465;-64
2023/05/21 10:02:21;;;;;;;7.37;3.97;;;;;;;26.63;34.75;99602.75;4492877;31;34801;-63
2023/05/21 10:04:51;;;;;;;6.57;3.90;;;;;;;26.93;35.16;99588.34;4499149;31;33985;-63
2023/05/21 10:07:27;;;;;;;6.05;3.33;;;;;;;26.99;34.67;99592.09;4493070;31;32822;-64
2023/05/21 10:09:56;;;;;;;6.87;3.75;;;;;;;27.13;34.26;99593.69;4497793;31;33248;-66
2023/05/21 10:12:24;;;;;;;6.82;4.12;;;;;;;27.06;33.47;99591.00;4493825;31;35237;-63
2023/05/21 10:15:14;;;;;;;5.80;3.22;;;;;;;26.68;34.50;99593.84;4500146;31;34683;-65
2023/05/21 10:17:43;;;;;;;4.55;3.28;;;;;;;26.92;34.39;99584.75;4492378;31;33938;-64
2023/05/21 10:20:11;;;;;;;5.57;3.65;;;;;;;27.05;33.75;99578.31;4499743;31;33589;-65
2023/05/21 10:22:39;;;;;;;5.00;3.12;;;;;;;27.01;33.68;99577.09;4503278;31;34121;-66
2023/05/21 10:25:07;;;;;;;6.25;3.95;;;;;;;27.43;33.04;99569.06;4492016;31;34919;-65
2023/05/21 10:27:36;;;;;;;6.32;3.70;;;;;;;27.10;33.77;99580.41;4490019;31;34223;-66
2023/05/21 10:30:07;;;;;;;11.40;5.03;;;;;;;27.47;33.39;99573.03;4496150;31;33301;-64
2023/05/21 10:32:35;;;;;;;6.62;4.57;;;;;;;27.54;33.54;99575.69;4497814;31;34071;-65
2023/05/21 10:35:03;;;;;;;5.50;3.12;;;;;;;27.02;33.19;99577.91;4496277;31;34113;-65
2023/05/21 10:37:30;;;;;;;6.75;4.32;;;;;;;27.43;33.68;99574.56;4494918;31;33701;-65
2023/05/21 10:39:58;;;;;;;7.70;4.55;;;;;;;27.91;30.66;99584.81;4491915;31;33432;-65
2023/05/21 10:42:29;;;;;;;6.32;3.85;;;;;;;27.82;31.79;99570.53;4482057;31;33619;-64
2023/05/21 10:45:02;;;;;;;7.45;3.97;;;;;;;27.41;33.22;99571.19;4483964;32;33309;-65
2023/05/21 10:47:42;;;;;;;4.90;3.40;;;;;;;27.98;32.37;99566.28;4496297;31;34595;-63
2023/05/21 10:51:00;;;;;;;8.50;3.65;;;;;;;27.82;32.66;99561.44;4498657;31;34513;-66
2023/05/21 10:53:36;;;;;;;6.72;3.78;;;;;;;28.38;31.42;99567.63;4453185;31;34603;-64
2023/05/21 10:56:16;;;;;;;6.47;3.58;;;;;;;28.09;31.75;99565.50;4494321;31;35016;-65
2023/05/21 10:58:57;;;;;;;7.07;3.47;;;;;;;27.75;31.59;99564.25;4488690;31;33633;-65
2023/05/21 11:01:27;;;;;;;10.13;4.05;;;;;;;27.67;32.32;99563.72;4492852;31;33892;-66
2023/05/21 11:03:56;;;;;;;8.63;3.72;;;;;;;28.18;31.45;99565.16;4494210;31;34074;-66
2023/05/21 11:06:25;;;;;;;5.65;4.05;;;;;;;27.70;32.76;99561.34;4489447;31;34098;-65
2023/05/21 11:08:53;;;;;;;7.10;5.07;;;;;;;28.26;32.52;99567.59;4495345;31;33659;-66
2023/05/21 11:11:42;;;;;;;8.98;4.37;;;;;;;27.54;32.70;99559.22;4494987;31;32998;-65
2023/05/21 11:14:34;;;;;;;7.07;4.05;;;;;;;27.80;32.27;99558.94;4496167;31;33365;-64
2023/05/21 11:17:08;;;;;;;8.88;4.65;;;;;;;28.10;32.37;99544.34;4490114;31;33641;-64
2023/05/21 11:19:37;;;;;;;7.30;4.37;;;;;;;27.93;32.77;99551.56;4483112;31;34174;-63
2023/05/21 11:22:07;;;;;;;5.45;3.42;;;;;;;27.52;32.39;99542.13;4494372;31;33681;-63
2023/05/21 11:24:39;;;;;;;5.32;3.12;;;;;;;27.84;30.85;99554.62;4494302;31;33570;-64
2023/05/21 11:27:07;;;;;;;11.80;3.70;;;;;;;28.15;30.79;99552.72;4501084;31;34811;-64
2023/05/21 11:29:39;;;;;;;5.78;3.20;;;;;;;27.60;32.06;99558.28;4501026;31;33728;-63
2023/05/21 11:32:09;;;;;;;9.00;4.20;;;;;;;27.85;31.75;99550.81;4483690;31;33968;-65
2023/05/21 11:34:44;;;;;;;5.85;3.97;;;;;;;27.84;31.63;99551.06;4492766;31;32660;-66
2023/05/21 11:37:39;;;;;;;9.48;3.53;;;;;;;28.26;31.59;99551.09;4490344;31;33459;-64
2023/05/21 11:40:17;;;;;;;6.53;3.67;;;;;;;28.36;31.37;99550.50;4495491;31;33985;-65
2023/05/21 11:42:50;;;;;;;5.87;3.20;;;;;;;28.04;30.50;99548.84;4491469;31;33433;-64